createdAt,value
2023-05-23T00:01:43.435Z,12.30
2023-05-23T00:04:10.995Z,13.48
2023-05-23T00:06:39.017Z,13.05
2023-05-23T00:09:06.234Z,14.00
2023-05-23T00:11:33.256Z,14.88
2023-05-23T00:14:01.410Z,13.13
2023-05-23T00:16:28.595Z,13.60
2023-05-23T00:18:57.710Z,13.05
2023-05-23T00:21:24.919Z,13.43
2023-05-23T00:23:51.876Z,13.40
2023-05-23T00:26:18.836Z,14.95
2023-05-23T00:28:46.098Z,13.80
2023-05-23T00:31:13.091Z,13.93
2023-05-23T00:33:40.101Z,13.68
2023-05-23T00:36:07.274Z,15.13
2023-05-23T00:38:34.205Z,13.43
2023-05-23T00:41:02.264Z,14.10
2023-05-23T00:43:29.591Z,13.93
2023-05-23T00:45:56.692Z,13.82
2023-05-23T00:48:27.106Z,14.38
2023-05-23T00:50:54.921Z,13.40
2023-05-23T00:53:22.347Z,15.43
2023-05-23T00:55:49.563Z,14.00
2023-05-23T00:58:17.786Z,13.95
2023-05-23T01:00:50.518Z,14.52
2023-05-23T01:03:19.078Z,15.00
2023-05-23T01:05:46.186Z,15.75
2023-05-23T01:08:15.670Z,13.90
2023-05-23T01:10:42.793Z,14.10
2023-05-23T01:13:20.848Z,14.65
2023-05-23T01:16:12.130Z,14.52
2023-05-23T01:19:02.975Z,15.32
2023-05-23T01:21:30.314Z,16.13
2023-05-23T01:24:06.591Z,14.65
2023-05-23T01:26:41.377Z,15.80
2023-05-23T01:29:25.234Z,16.27
2023-05-23T01:31:55.467Z,15.75
2023-05-23T01:34:22.726Z,15.80
2023-05-23T01:36:56.527Z,15.73
2023-05-23T01:39:24.404Z,14.98
2023-05-23T01:41:52.974Z,16.75
2023-05-23T01:44:21.409Z,17.13
2023-05-23T01:46:48.794Z,16.48
2023-05-23T01:49:18.152Z,16.10
2023-05-23T01:51:46.379Z,18.40
2023-05-23T01:54:17.079Z,17.42
2023-05-23T01:56:44.908Z,26.17
2023-05-23T01:59:12.582Z,25.08
2023-05-23T02:01:40.893Z,24.58
2023-05-23T02:04:08.195Z,23.77
2023-05-23T02:06:35.379Z,22.50
2023-05-23T02:09:02.453Z,20.10
2023-05-23T02:11:29.414Z,16.55
2023-05-23T02:13:56.396Z,13.27
2023-05-23T02:16:23.428Z,14.40
2023-05-23T02:18:53.071Z,13.32
2023-05-23T02:21:20.097Z,13.23
2023-05-23T02:23:47.004Z,13.95
2023-05-23T02:26:13.920Z,13.57
2023-05-23T02:28:41.410Z,13.15
2023-05-23T02:31:08.440Z,14.07
2023-05-23T02:33:35.558Z,15.38
2023-05-23T02:36:02.949Z,13.85
2023-05-23T02:38:30.922Z,13.73
2023-05-23T02:40:57.871Z,16.13
2023-05-23T02:43:25.039Z,16.80
2023-05-23T02:45:52.073Z,16.65
2023-05-23T02:48:19.100Z,19.55
2023-05-23T02:50:46.190Z,18.15
2023-05-23T02:53:13.223Z,15.57
2023-05-23T02:55:40.512Z,15.27
2023-05-23T02:58:07.618Z,14.57
2023-05-23T03:00:34.586Z,13.25
2023-05-23T03:03:01.867Z,13.13
2023-05-23T03:05:29.156Z,13.57
2023-05-23T03:07:56.247Z,12.65
2023-05-23T03:10:23.317Z,12.32
2023-05-23T03:12:50.657Z,12.50
2023-05-23T03:15:18.333Z,13.68
2023-05-23T03:17:45.670Z,14.68
2023-05-23T03:20:12.915Z,12.77
2023-05-23T03:22:42.056Z,13.90
2023-05-23T03:25:09.539Z,13.65
2023-05-23T03:27:36.707Z,13.93
2023-05-23T03:30:04.920Z,14.55
2023-05-23T03:32:32.212Z,14.68
2023-05-23T03:34:59.440Z,15.05
2023-05-23T03:37:26.685Z,16.08
2023-05-23T03:39:53.704Z,16.70
2023-05-23T03:42:20.842Z,16.20
2023-05-23T03:44:47.819Z,15.85
2023-05-23T03:47:15.024Z,15.80
2023-05-23T03:49:42.648Z,14.50
2023-05-23T03:52:09.863Z,14.80
2023-05-23T03:54:37.310Z,15.75
2023-05-23T03:57:04.618Z,15.25
2023-05-23T03:59:31.953Z,15.65
2023-05-23T04:02:00.534Z,15.05
2023-05-23T04:04:29.706Z,16.08
2023-05-23T04:06:58.348Z,15.85
2023-05-23T04:09:25.630Z,14.55
2023-05-23T04:11:53.104Z,14.77
2023-05-23T04:14:24.402Z,14.82
2023-05-23T04:16:51.447Z,14.65
2023-05-23T04:19:18.579Z,15.43
2023-05-23T04:21:45.803Z,14.77
2023-05-23T04:24:12.860Z,16.17
2023-05-23T04:26:39.772Z,16.02
2023-05-23T04:29:06.857Z,16.80
2023-05-23T04:31:34.419Z,19.35
2023-05-23T04:34:02.562Z,18.10
2023-05-23T04:36:30.366Z,20.95
2023-05-23T04:38:57.402Z,22.23
2023-05-23T04:41:24.694Z,22.35
2023-05-23T04:43:54.595Z,21.65
2023-05-23T04:46:27.634Z,19.95
2023-05-23T04:48:55.257Z,20.38
2023-05-23T04:51:22.415Z,20.27
2023-05-23T04:53:50.430Z,18.35
2023-05-23T04:56:18.905Z,22.65
2023-05-23T04:58:48.276Z,25.77
2023-05-23T05:01:15.927Z,24.63
2023-05-23T05:03:43.077Z,25.25
2023-05-23T05:06:10.375Z,26.10
2023-05-23T05:08:37.502Z,26.40
2023-05-23T05:11:04.781Z,24.05
2023-05-23T05:13:31.740Z,24.50
2023-05-23T05:15:59.078Z,24.17
2023-05-23T05:18:30.078Z,25.58
2023-05-23T05:20:57.359Z,25.80
2023-05-23T05:23:28.841Z,27.02
2023-05-23T05:25:56.645Z,26.77
2023-05-23T05:28:24.461Z,25.13
2023-05-23T05:30:54.479Z,28.40
2023-05-23T05:33:25.223Z,29.05
2023-05-23T05:35:52.457Z,31.10
2023-05-23T05:38:19.659Z,30.38
2023-05-23T05:40:46.715Z,33.00
2023-05-23T05:43:13.723Z,33.85
2023-05-23T05:45:40.856Z,35.13
2023-05-23T05:48:08.409Z,37.55
2023-05-23T05:50:35.720Z,35.42
2023-05-23T05:53:03.497Z,37.35
2023-05-23T05:55:30.626Z,35.55
2023-05-23T05:57:57.727Z,37.80
2023-05-23T06:00:25.363Z,38.10
2023-05-23T06:02:55.192Z,40.92
2023-05-23T06:05:22.481Z,40.45
2023-05-23T06:07:51.332Z,40.50
2023-05-23T06:10:19.104Z,42.65
2023-05-23T06:12:46.809Z,41.55
2023-05-23T06:15:14.854Z,41.03
2023-05-23T06:17:44.962Z,40.53
2023-05-23T06:20:12.622Z,41.90
2023-05-23T06:22:39.937Z,43.28
2023-05-23T06:25:07.702Z,42.60
2023-05-23T06:27:34.910Z,43.03
2023-05-23T06:30:02.569Z,41.05
2023-05-23T06:32:29.783Z,43.28
2023-05-23T06:34:56.957Z,42.75
2023-05-23T06:37:24.072Z,41.80
2023-05-23T06:39:51.276Z,41.22
2023-05-23T06:42:18.504Z,44.10
2023-05-23T06:44:45.584Z,43.40
2023-05-23T06:47:12.771Z,41.75
2023-05-23T06:49:39.880Z,41.97
2023-05-23T06:52:07.095Z,41.92
2023-05-23T06:54:34.187Z,44.85
2023-05-23T06:57:01.302Z,43.70
2023-05-23T06:59:28.592Z,41.60
2023-05-23T07:01:55.835Z,41.60
2023-05-23T07:04:23.004Z,42.63
2023-05-23T07:06:50.581Z,41.53
2023-05-23T07:09:17.693Z,41.22
2023-05-23T07:11:44.870Z,41.42
2023-05-23T07:14:12.011Z,41.20
2023-05-23T07:16:39.293Z,39.33
2023-05-23T07:19:06.450Z,41.33
2023-05-23T07:21:33.535Z,41.90
2023-05-23T07:24:00.608Z,38.88
2023-05-23T07:26:27.962Z,38.42
2023-05-23T07:28:55.272Z,39.70
2023-05-23T07:31:22.716Z,37.33
2023-05-23T07:33:49.863Z,37.40
2023-05-23T07:36:17.029Z,38.90
2023-05-23T07:38:44.272Z,38.80
2023-05-23T07:41:12.317Z,35.90
2023-05-23T07:43:40.263Z,35.88
2023-05-23T07:46:07.537Z,34.08
2023-05-23T07:48:34.613Z,35.47
2023-05-23T07:51:01.578Z,34.83
2023-05-23T07:53:28.644Z,36.42
2023-05-23T07:55:55.776Z,35.88
2023-05-23T07:58:24.036Z,35.40
2023-05-23T08:00:52.907Z,35.13
2023-05-23T08:03:20.653Z,34.28
2023-05-23T08:05:47.854Z,32.67
2023-05-23T08:08:14.998Z,32.65
2023-05-23T08:10:42.530Z,31.77
2023-05-23T08:13:10.616Z,31.33
2023-05-23T08:15:37.608Z,32.90
2023-05-23T08:18:05.718Z,32.38
2023-05-23T08:20:32.826Z,33.42
2023-05-23T08:23:02.806Z,33.10
2023-05-23T08:25:31.033Z,34.42
2023-05-23T08:27:58.964Z,34.42
2023-05-23T08:30:26.955Z,33.55
2023-05-23T08:32:55.569Z,33.35
2023-05-23T08:35:23.091Z,32.20
2023-05-23T08:37:50.928Z,32.95
2023-05-23T08:40:22.725Z,31.60
2023-05-23T08:42:50.832Z,32.58
2023-05-23T08:45:18.459Z,32.22
2023-05-23T08:47:46.838Z,31.20
2023-05-23T08:50:17.150Z,29.80
2023-05-23T08:52:58.157Z,30.80
2023-05-23T08:55:29.167Z,30.70
2023-05-23T08:57:59.431Z,30.75
2023-05-23T09:00:27.947Z,29.65
2023-05-23T09:02:55.998Z,30.70
2023-05-23T09:05:23.216Z,30.08
2023-05-23T09:07:55.210Z,27.90
2023-05-23T09:10:22.661Z,28.92
2023-05-23T09:12:50.470Z,27.77
2023-05-23T09:15:17.720Z,27.88
2023-05-23T09:17:45.556Z,26.83
2023-05-23T09:20:17.069Z,26.15
2023-05-23T09:22:48.719Z,24.80
2023-05-23T09:25:16.364Z,25.75
2023-05-23T09:27:46.699Z,24.05
2023-05-23T09:30:15.991Z,23.42
2023-05-23T09:32:44.836Z,22.15
2023-05-23T09:35:14.234Z,22.25
2023-05-23T09:37:46.144Z,23.05
2023-05-23T09:40:14.754Z,22.25
2023-05-23T09:42:46.960Z,21.17
2023-05-23T09:45:15.098Z,21.98
2023-05-23T09:47:54.429Z,21.77
2023-05-23T09:50:22.498Z,20.83
2023-05-23T09:52:51.230Z,20.45
2023-05-23T09:55:18.702Z,19.60
2023-05-23T09:57:48.450Z,18.45
2023-05-23T10:00:17.088Z,18.48
2023-05-23T10:03:13.135Z,19.77
2023-05-23T10:06:01.639Z,20.15
2023-05-23T10:08:43.424Z,20.73
2023-05-23T10:11:36.061Z,21.08
2023-05-23T10:14:09.258Z,21.33
2023-05-23T10:16:48.595Z,19.88
2023-05-23T10:19:27.144Z,20.52
2023-05-23T10:21:59.798Z,21.73
2023-05-23T10:24:27.708Z,20.67
2023-05-23T10:26:58.169Z,20.17
2023-05-23T10:29:25.954Z,18.70
2023-05-23T10:31:53.956Z,18.95
2023-05-23T10:34:42.122Z,19.73
2023-05-23T10:37:17.972Z,17.98
2023-05-23T10:40:20.707Z,16.38
2023-05-23T10:43:33.449Z,17.85
2023-05-23T10:46:00.591Z,16.13
2023-05-23T10:48:42.468Z,16.90
2023-05-23T10:51:10.159Z,16.25
2023-05-23T10:53:39.167Z,16.23
2023-05-23T10:56:08.109Z,15.45
2023-05-23T10:58:36.962Z,15.70
2023-05-23T11:01:15.840Z,15.30
2023-05-23T11:03:46.408Z,15.20
2023-05-23T11:06:34.083Z,15.25
2023-05-23T11:09:07.789Z,14.35
2023-05-23T11:11:55.290Z,14.25
2023-05-23T11:14:54.909Z,13.45
2023-05-23T11:17:33.530Z,13.10
2023-05-23T11:20:08.931Z,13.30
2023-05-23T11:22:36.583Z,13.10
2023-05-23T11:25:10.460Z,12.68
2023-05-23T11:27:39.590Z,12.75
2023-05-23T11:30:15.092Z,11.57
2023-05-23T11:32:53.501Z,11.85
2023-05-23T11:35:21.616Z,11.70
2023-05-23T11:37:49.168Z,11.48
2023-05-23T11:40:26.037Z,11.65
2023-05-23T11:42:54.457Z,10.68
2023-05-23T11:45:23.279Z,11.52
2023-05-23T11:47:50.357Z,10.82
2023-05-23T11:50:18.196Z,10.52
2023-05-23T11:52:51.344Z,11.27
2023-05-23T11:55:22.289Z,9.65
2023-05-23T11:57:51.790Z,10.07
2023-05-23T12:00:19.844Z,9.57
2023-05-23T12:02:49.845Z,9.75
2023-05-23T12:05:17.249Z,8.50
2023-05-23T12:07:49.289Z,8.40
2023-05-23T12:10:17.210Z,8.35
2023-05-23T12:12:44.984Z,9.95
2023-05-23T12:15:13.073Z,10.63
2023-05-23T12:17:45.692Z,10.38
2023-05-23T12:20:13.618Z,10.52
2023-05-23T12:22:42.849Z,10.10
2023-05-23T12:25:13.141Z,10.60
2023-05-23T12:27:44.347Z,9.43
2023-05-23T12:30:16.739Z,10.35
2023-05-23T12:32:45.875Z,10.40
2023-05-23T12:35:15.308Z,9.80
2023-05-23T12:37:46.084Z,10.15
2023-05-23T12:40:18.156Z,9.40
2023-05-23T12:43:09.208Z,9.95
2023-05-23T12:45:37.464Z,10.50
2023-05-23T12:48:05.362Z,8.98
2023-05-23T12:50:32.722Z,9.30
2023-05-23T12:53:00.060Z,8.40
2023-05-23T12:55:27.467Z,8.90
2023-05-23T12:57:55.242Z,8.93
2023-05-23T13:00:22.631Z,7.82
2023-05-23T13:02:50.655Z,7.72
2023-05-23T13:05:18.081Z,7.72
2023-05-23T13:07:45.327Z,7.70
2023-05-23T13:10:12.795Z,7.32
2023-05-23T13:12:39.942Z,7.22
2023-05-23T13:15:07.710Z,6.40
2023-05-23T13:17:34.994Z,6.32
2023-05-23T13:20:02.448Z,6.28
2023-05-23T13:22:29.591Z,6.10
2023-05-23T13:24:56.630Z,5.95
2023-05-23T13:27:23.848Z,5.60
2023-05-23T13:29:51.031Z,5.57
2023-05-23T13:32:18.779Z,5.45
2023-05-23T13:34:45.951Z,5.18
2023-05-23T13:37:13.221Z,5.40
2023-05-23T13:39:40.355Z,5.00
2023-05-23T13:42:08.134Z,4.95
2023-05-23T13:44:35.492Z,4.82
2023-05-23T13:47:13.446Z,4.35
2023-05-23T13:49:41.836Z,4.45
2023-05-23T13:52:09.442Z,4.05
2023-05-23T13:54:36.583Z,4.00
2023-05-23T13:57:04.004Z,4.20
2023-05-23T13:59:31.410Z,4.07
2023-05-23T14:01:58.623Z,4.05
2023-05-23T14:04:26.004Z,4.07
2023-05-23T14:06:53.578Z,3.90
2023-05-23T14:09:23.044Z,3.90
2023-05-23T14:11:52.288Z,3.67
2023-05-23T14:14:19.590Z,3.65
2023-05-23T14:16:46.898Z,3.47
2023-05-23T14:19:14.491Z,3.50
2023-05-23T14:21:44.017Z,3.60
2023-05-23T14:24:12.169Z,3.80
2023-05-23T14:26:39.160Z,3.50
2023-05-23T14:29:06.415Z,3.90
2023-05-23T14:31:33.661Z,3.63
2023-05-23T14:34:00.898Z,3.58
2023-05-23T14:36:28.696Z,3.58
2023-05-23T14:38:56.138Z,3.72
2023-05-23T14:41:23.572Z,3.45
2023-05-23T14:43:51.109Z,3.65
2023-05-23T14:46:18.592Z,3.70
2023-05-23T14:48:45.975Z,3.75
2023-05-23T14:51:23.604Z,3.33
2023-05-23T14:53:55.030Z,3.03
2023-05-23T14:56:23.391Z,2.95
2023-05-23T14:58:51.149Z,3.17
2023-05-23T15:01:19.560Z,2.95
2023-05-23T15:03:46.947Z,3.30
2023-05-23T15:06:14.377Z,3.35
2023-05-23T15:08:41.491Z,3.40
2023-05-23T15:11:09.799Z,3.30
2023-05-23T15:13:37.114Z,3.30
2023-05-23T15:16:04.318Z,3.20
2023-05-23T15:18:40.929Z,3.17
2023-05-23T15:21:08.722Z,2.83
2023-05-23T15:23:35.926Z,3.20
2023-05-23T15:26:03.081Z,3.15
2023-05-23T15:28:30.319Z,3.20
2023-05-23T15:30:59.093Z,2.85
2023-05-23T15:33:26.443Z,3.45
2023-05-23T15:35:54.973Z,3.10
2023-05-23T15:38:22.268Z,3.08
2023-05-23T15:40:49.472Z,2.95
2023-05-23T15:43:16.560Z,2.92
2023-05-23T15:45:43.885Z,3.10
2023-05-23T15:48:11.423Z,3.20
2023-05-23T15:50:38.879Z,2.95
2023-05-23T15:53:06.359Z,3.15
2023-05-23T15:55:33.540Z,2.88
2023-05-23T15:58:00.706Z,3.10
2023-05-23T16:00:28.328Z,3.20
2023-05-23T16:02:55.864Z,3.00
2023-05-23T16:05:23.263Z,3.25
2023-05-23T16:07:51.490Z,3.33
2023-05-23T16:10:19.393Z,3.30
2023-05-23T16:12:46.557Z,3.10
2023-05-23T16:15:13.695Z,3.15
2023-05-23T16:17:40.766Z,3.25
2023-05-23T16:20:08.578Z,3.50
2023-05-23T16:22:35.781Z,3.35
2023-05-23T16:25:02.993Z,3.70
2023-05-23T16:27:30.113Z,3.30
2023-05-23T16:29:57.367Z,3.10
2023-05-23T16:32:24.642Z,3.08
2023-05-23T16:34:54.121Z,2.53
2023-05-23T16:37:21.973Z,2.70
2023-05-23T16:39:49.314Z,2.70
2023-05-23T16:42:17.860Z,2.63
2023-05-23T16:44:45.680Z,2.97
2023-05-23T16:47:12.910Z,2.95
2023-05-23T16:49:39.901Z,2.65
2023-05-23T16:52:07.067Z,3.25
2023-05-23T16:54:34.161Z,3.40
2023-05-23T16:57:02.149Z,3.05
2023-05-23T16:59:30.019Z,3.30
2023-05-23T17:01:57.616Z,3.50
2023-05-23T17:04:24.946Z,3.10
2023-05-23T17:06:52.038Z,3.33
2023-05-23T17:09:21.383Z,3.35
2023-05-23T17:11:49.167Z,3.00
2023-05-23T17:14:16.260Z,3.17
2023-05-23T17:16:43.560Z,3.08
2023-05-23T17:19:10.992Z,3.13
2023-05-23T17:21:38.055Z,3.20
2023-05-23T17:24:05.262Z,3.42
2023-05-23T17:26:32.659Z,3.10
2023-05-23T17:28:59.954Z,3.35
2023-05-23T17:31:29.643Z,3.60
2023-05-23T17:33:58.047Z,4.20
2023-05-23T17:36:25.247Z,4.20
2023-05-23T17:38:53.850Z,4.07
2023-05-23T17:41:23.220Z,4.80
2023-05-23T17:43:50.789Z,4.85
2023-05-23T17:46:18.121Z,5.22
2023-05-23T17:48:47.474Z,5.30
2023-05-23T17:51:16.211Z,6.20
2023-05-23T17:53:43.729Z,6.60
2023-05-23T17:56:11.184Z,6.63
2023-05-23T17:58:40.315Z,6.95
2023-05-23T18:01:08.910Z,6.40
2023-05-23T18:03:36.302Z,6.53
2023-05-23T18:06:03.503Z,6.57
2023-05-23T18:08:30.916Z,6.53
2023-05-23T18:10:58.109Z,6.57
2023-05-23T18:13:25.345Z,6.13
2023-05-23T18:15:52.440Z,6.53
2023-05-23T18:18:19.658Z,5.90
2023-05-23T18:20:47.284Z,5.68
2023-05-23T18:23:14.464Z,6.03
2023-05-23T18:25:41.673Z,6.30
2023-05-23T18:28:08.714Z,5.75
2023-05-23T18:30:35.976Z,5.72
2023-05-23T18:33:03.077Z,5.85
2023-05-23T18:35:30.412Z,5.40
2023-05-23T18:37:57.661Z,5.75
2023-05-23T18:40:27.299Z,5.97
2023-05-23T18:42:54.802Z,5.78
2023-05-23T18:45:22.497Z,5.32
2023-05-23T18:47:50.095Z,5.60
2023-05-23T18:50:17.611Z,5.25
2023-05-23T18:52:45.100Z,5.60
2023-05-23T18:55:12.450Z,5.28
2023-05-23T18:57:39.773Z,5.22
2023-05-23T19:00:07.840Z,5.45
2023-05-23T19:02:35.636Z,5.30
2023-05-23T19:05:02.962Z,5.20
2023-05-23T19:07:30.090Z,4.97
2023-05-23T19:09:57.252Z,4.85
2023-05-23T19:12:24.451Z,5.45
2023-05-23T19:14:52.181Z,5.40
2023-05-23T19:17:19.687Z,5.38
2023-05-23T19:19:46.896Z,5.75
2023-05-23T19:22:14.007Z,5.60
2023-05-23T19:24:41.666Z,5.40
2023-05-23T19:27:08.782Z,5.82
2023-05-23T19:29:36.088Z,6.00
2023-05-23T19:32:03.471Z,5.38
2023-05-23T19:34:30.960Z,6.53
2023-05-23T19:36:58.157Z,6.38
2023-05-23T19:39:25.608Z,6.32
2023-05-23T19:41:53.412Z,6.10
2023-05-23T19:44:22.475Z,5.80
2023-05-23T19:46:49.633Z,6.15
2023-05-23T19:49:17.518Z,6.93
2023-05-23T19:51:44.724Z,5.90
2023-05-23T19:54:13.638Z,6.30
2023-05-23T19:56:41.516Z,6.78
2023-05-23T19:59:08.713Z,7.85
2023-05-23T20:01:36.025Z,7.28
2023-05-23T20:04:03.393Z,7.07
2023-05-23T20:06:31.500Z,7.53
2023-05-23T20:08:58.695Z,8.15
2023-05-23T20:11:27.318Z,7.75
2023-05-23T20:13:54.487Z,7.43
2023-05-23T20:16:21.705Z,8.00
2023-05-23T20:18:49.297Z,8.50
2023-05-23T20:21:16.696Z,7.90
2023-05-23T20:23:45.260Z,8.32
2023-05-23T20:26:12.440Z,8.32
2023-05-23T20:28:39.680Z,8.25
2023-05-23T20:31:06.970Z,8.35
2023-05-23T20:33:36.987Z,8.13
2023-05-23T20:36:04.879Z,8.30
2023-05-23T20:38:34.141Z,8.38
2023-05-23T20:41:08.620Z,7.95
2023-05-23T20:43:37.472Z,8.55
2023-05-23T20:46:05.812Z,8.30
2023-05-23T20:48:33.712Z,8.32
2023-05-23T20:51:01.199Z,8.73
2023-05-23T20:53:29.921Z,7.78
2023-05-23T20:55:57.416Z,7.85
2023-05-23T20:58:25.443Z,7.60
2023-05-23T21:00:52.662Z,7.40
2023-05-23T21:03:19.914Z,8.40
2023-05-23T21:05:47.190Z,7.57
2023-05-23T21:08:14.377Z,7.75
2023-05-23T21:10:41.912Z,7.60
2023-05-23T21:13:09.259Z,7.70
2023-05-23T21:15:36.455Z,7.60
2023-05-23T21:18:04.293Z,7.55
2023-05-23T21:20:31.448Z,7.55
2023-05-23T21:22:58.672Z,7.30
2023-05-23T21:25:26.214Z,7.60
2023-05-23T21:27:53.344Z,7.05
2023-05-23T21:30:20.527Z,6.93
2023-05-23T21:32:47.857Z,7.13
2023-05-23T21:35:14.991Z,6.50
2023-05-23T21:37:42.116Z,7.18
2023-05-23T21:40:09.778Z,6.65
2023-05-23T21:42:36.810Z,6.25
2023-05-23T21:45:04.410Z,6.07
2023-05-23T21:47:31.608Z,6.03
2023-05-23T21:49:59.008Z,6.18
2023-05-23T21:52:26.203Z,6.80
2023-05-23T21:54:53.394Z,5.97
2023-05-23T21:57:20.508Z,5.95
2023-05-23T21:59:47.809Z,5.57
2023-05-23T22:02:14.986Z,5.47
2023-05-23T22:04:42.252Z,5.55
2023-05-23T22:07:09.453Z,5.00
2023-05-23T22:09:36.669Z,4.80
2023-05-23T22:12:04.057Z,4.40
2023-05-23T22:14:31.575Z,4.85
2023-05-23T22:17:02.324Z,4.75
2023-05-23T22:19:30.444Z,4.60
2023-05-23T22:21:57.878Z,4.55
2023-05-23T22:24:25.464Z,4.18
2023-05-23T22:26:52.739Z,4.30
2023-05-23T22:29:19.850Z,4.22
2023-05-23T22:31:47.699Z,4.10
2023-05-23T22:34:15.252Z,4.05
2023-05-23T22:36:42.522Z,3.90
2023-05-23T22:39:09.709Z,3.55
2023-05-23T22:41:36.914Z,3.40
2023-05-23T22:44:04.075Z,3.58
2023-05-23T22:46:31.845Z,3.78
2023-05-23T22:49:00.422Z,3.65
2023-05-23T22:51:27.693Z,3.35
2023-05-23T22:53:54.850Z,3.70
2023-05-23T22:56:22.205Z,3.45
2023-05-23T22:58:49.284Z,3.53
2023-05-23T23:01:16.499Z,3.30
2023-05-23T23:03:44.422Z,3.38
2023-05-23T23:06:12.329Z,3.33
2023-05-23T23:08:39.456Z,3.17
2023-05-23T23:11:06.563Z,3.00
2023-05-23T23:13:33.649Z,3.40
2023-05-23T23:16:00.860Z,3.05
2023-05-23T23:18:28.046Z,3.47
2023-05-23T23:20:55.266Z,3.08
2023-05-23T23:23:22.401Z,3.58
2023-05-23T23:25:50.472Z,3.35
2023-05-23T23:28:18.344Z,3.00
2023-05-23T23:30:46.625Z,3.65
2023-05-23T23:33:14.724Z,3.55
2023-05-23T23:35:45.575Z,3.33
2023-05-23T23:38:12.827Z,3.13
2023-05-23T23:40:39.921Z,3.45
2023-05-23T23:43:07.139Z,3.40
2023-05-23T23:45:34.306Z,3.55
2023-05-23T23:48:01.483Z,3.50
2023-05-23T23:50:28.628Z,3.35
2023-05-23T23:52:58.050Z,3.45
2023-05-23T23:55:25.189Z,3.70
2023-05-23T23:57:53.048Z,3.90
